sensor_id;sensor_type;location;lat;lon;timestamp;temperature;humidity
11894;DHT22;6006;49.696;8.662;2023-02-17T00:01:59;9.90;99.90
11894;DHT22;6006;49.696;8.662;2023-02-17T00:04:26;9.90;99.90
11894;DHT22;6006;49.696;8.662;2023-02-17T00:06:53;10.30;1.00
11894;DHT22;6006;49.696;8.662;2023-02-17T00:09:22;10.30;1.00
11894;DHT22;6006;49.696;8.662;2023-02-17T00:11:50;10.30;99.90
11894;DHT22;6006;49.696;8.662;2023-02-17T00:14:17;10.30;99.90
11894;DHT22;6006;49.696;8.662;2023-02-17T00:16:44;10.20;99.90
11894;DHT22;6006;49.696;8.662;2023-02-17T00:19:12;10.20;1.00
11894;DHT22;6006;49.696;8.662;2023-02-17T00:21:53;10.00;99.90
11894;DHT22;6006;49.696;8.662;2023-02-17T00:24:22;9.90;1.00
11894;DHT22;6006;49.696;8.662;2023-02-17T00:26:49;9.80;1.00
11894;DHT22;6006;49.696;8.662;2023-02-17T00:29:16;9.70;1.00
11894;DHT22;6006;49.696;8.662;2023-02-17T00:31:43;9.60;99.90
11894;DHT22;6006;49.696;8.662;2023-02-17T00:34:11;9.60;99.90
11894;DHT22;6006;49.696;8.662;2023-02-17T00:36:38;9.50;1.00
11894;DHT22;6006;49.696;8.662;2023-02-17T00:39:05;9.50;99.90
11894;DHT22;6006;49.696;8.662;2023-02-17T00:41:34;9.50;1.00
11894;DHT22;6006;49.696;8.662;2023-02-17T00:44:01;9.40;99.90
11894;DHT22;6006;49.696;8.662;2023-02-17T00:46:28;9.30;1.00
11894;DHT22;6006;49.696;8.662;2023-02-17T00:48:56;9.30;99.90
11894;DHT22;6006;49.696;8.662;2023-02-17T00:51:23;9.30;99.90
11894;DHT22;6006;49.696;8.662;2023-02-17T00:53:50;9.30;99.90
11894;DHT22;6006;49.696;8.662;2023-02-17T00:56:17;9.40;1.00
11894;DHT22;6006;49.696;8.662;2023-02-17T00:58:45;9.60;1.00
11894;DHT22;6006;49.696;8.662;2023-02-17T01:01:13;9.80;67.50
11894;DHT22;6006;49.696;8.662;2023-02-17T01:03:40;9.90;1.00
11894;DHT22;6006;49.696;8.662;2023-02-17T01:06:09;9.90;1.00
11894;DHT22;6006;49.696;8.662;2023-02-17T01:08:36;9.90;94.50
11894;DHT22;6006;49.696;8.662;2023-02-17T01:11:03;9.90;99.90
11894;DHT22;6006;49.696;8.662;2023-02-17T01:13:31;9.80;1.00
11894;DHT22;6006;49.696;8.662;2023-02-17T01:15:59;9.70;6.60
11894;DHT22;6006;49.696;8.662;2023-02-17T01:18:26;9.70;1.00
11894;DHT22;6006;49.696;8.662;2023-02-17T01:20:53;9.70;1.00
11894;DHT22;6006;49.696;8.662;2023-02-17T01:23:20;9.60;1.00
11894;DHT22;6006;49.696;8.662;2023-02-17T01:25:47;9.70;99.90
11894;DHT22;6006;49.696;8.662;2023-02-17T01:28:18;9.50;99.90
11894;DHT22;6006;49.696;8.662;2023-02-17T01:30:45;9.50;99.90
11894;DHT22;6006;49.696;8.662;2023-02-17T01:33:14;9.40;99.90
11894;DHT22;6006;49.696;8.662;2023-02-17T01:35:41;9.60;1.00
11894;DHT22;6006;49.696;8.662;2023-02-17T01:38:08;9.50;99.90
11894;DHT22;6006;49.696;8.662;2023-02-17T01:40:35;9.40;1.00
11894;DHT22;6006;49.696;8.662;2023-02-17T01:43:02;9.30;1.00
11894;DHT22;6006;49.696;8.662;2023-02-17T01:45:36;9.30;1.00
11894;DHT22;6006;49.696;8.662;2023-02-17T01:48:07;9.20;1.00
11894;DHT22;6006;49.696;8.662;2023-02-17T01:50:41;9.20;1.00
11894;DHT22;6006;49.696;8.662;2023-02-17T01:53:10;9.30;99.90
11894;DHT22;6006;49.696;8.662;2023-02-17T01:55:40;9.30;99.90
11894;DHT22;6006;49.696;8.662;2023-02-17T01:58:11;9.50;1.00
11894;DHT22;6006;49.696;8.662;2023-02-17T02:00:40;9.50;99.90
11894;DHT22;6006;49.696;8.662;2023-02-17T02:03:09;9.50;1.00
11894;DHT22;6006;49.696;8.662;2023-02-17T02:05:39;9.50;1.00
11894;DHT22;6006;49.696;8.662;2023-02-17T02:08:07;9.40;1.00
11894;DHT22;6006;49.696;8.662;2023-02-17T02:10:34;9.30;99.90
11894;DHT22;6006;49.696;8.662;2023-02-17T02:13:01;9.30;1.00
11894;DHT22;6006;49.696;8.662;2023-02-17T02:15:32;9.20;99.90
11894;DHT22;6006;49.696;8.662;2023-02-17T02:18:17;9.00;99.90
11894;DHT22;6006;49.696;8.662;2023-02-17T02:27:20;9.20;99.90
11894;DHT22;6006;49.696;8.662;2023-02-17T02:32:56;9.40;99.90
11894;DHT22;6006;49.696;8.662;2023-02-17T02:35:28;9.40;99.90
11894;DHT22;6006;49.696;8.662;2023-02-17T02:38:01;9.40;99.90
11894;DHT22;6006;49.696;8.662;2023-02-17T02:40:32;9.40;99.90
11894;DHT22;6006;49.696;8.662;2023-02-17T02:43:00;9.40;99.90
11894;DHT22;6006;49.696;8.662;2023-02-17T02:45:29;9.40;57.10
11894;DHT22;6006;49.696;8.662;2023-02-17T02:47:57;9.40;49.10
11894;DHT22;6006;49.696;8.662;2023-02-17T02:50:33;9.50;1.00
11894;DHT22;6006;49.696;8.662;2023-02-17T02:53:18;9.50;1.00
11894;DHT22;6006;49.696;8.662;2023-02-17T02:55:52;9.50;99.90
11894;DHT22;6006;49.696;8.662;2023-02-17T02:58:23;9.50;1.00
11894;DHT22;6006;49.696;8.662;2023-02-17T03:00:56;9.50;83.50
11894;DHT22;6006;49.696;8.662;2023-02-17T03:03:30;9.40;1.00
11894;DHT22;6006;49.696;8.662;2023-02-17T03:06:04;9.40;99.90
11894;DHT22;6006;49.696;8.662;2023-02-17T03:08:34;9.40;1.00
11894;DHT22;6006;49.696;8.662;2023-02-17T03:11:03;9.40;1.00
11894;DHT22;6006;49.696;8.662;2023-02-17T03:13:31;9.40;99.90
11894;DHT22;6006;49.696;8.662;2023-02-17T03:16:02;9.40;99.90
11894;DHT22;6006;49.696;8.662;2023-02-17T03:18:32;9.30;1.00
11894;DHT22;6006;49.696;8.662;2023-02-17T03:21:02;9.40;1.00
11894;DHT22;6006;49.696;8.662;2023-02-17T03:23:30;9.60;1.00
11894;DHT22;6006;49.696;8.662;2023-02-17T03:25:57;9.60;1.00
11894;DHT22;6006;49.696;8.662;2023-02-17T03:28:24;9.70;99.90
11894;DHT22;6006;49.696;8.662;2023-02-17T03:30:51;9.80;1.00
11894;DHT22;6006;49.696;8.662;2023-02-17T03:33:18;9.90;19.40
11894;DHT22;6006;49.696;8.662;2023-02-17T03:35:46;10.00;99.90
11894;DHT22;6006;49.696;8.662;2023-02-17T03:38:13;10.00;1.00
11894;DHT22;6006;49.696;8.662;2023-02-17T03:40:40;10.00;1.00
11894;DHT22;6006;49.696;8.662;2023-02-17T03:43:07;10.00;1.00
11894;DHT22;6006;49.696;8.662;2023-02-17T03:45:34;10.00;1.00
11894;DHT22;6006;49.696;8.662;2023-02-17T03:48:02;10.00;99.90
11894;DHT22;6006;49.696;8.662;2023-02-17T03:50:29;10.10;99.90
11894;DHT22;6006;49.696;8.662;2023-02-17T03:52:58;10.10;99.90
11894;DHT22;6006;49.696;8.662;2023-02-17T03:55:24;10.10;99.90
11894;DHT22;6006;49.696;8.662;2023-02-17T03:57:51;10.00;67.20
11894;DHT22;6006;49.696;8.662;2023-02-17T04:00:19;10.00;99.90
11894;DHT22;6006;49.696;8.662;2023-02-17T04:02:46;10.00;99.90
11894;DHT22;6006;49.696;8.662;2023-02-17T04:05:13;10.10;99.90
11894;DHT22;6006;49.696;8.662;2023-02-17T04:07:40;10.00;99.90
11894;DHT22;6006;49.696;8.662;2023-02-17T04:10:09;10.00;99.90
11894;DHT22;6006;49.696;8.662;2023-02-17T04:12:35;10.00;1.00
11894;DHT22;6006;49.696;8.662;2023-02-17T04:15:03;10.00;99.90
11894;DHT22;6006;49.696;8.662;2023-02-17T04:17:30;10.00;99.90
11894;DHT22;6006;49.696;8.662;2023-02-17T04:19:56;9.90;41.90
11894;DHT22;6006;49.696;8.662;2023-02-17T04:22:23;9.90;1.00
11894;DHT22;6006;49.696;8.662;2023-02-17T04:24:50;10.00;1.00
11894;DHT22;6006;49.696;8.662;2023-02-17T04:27:18;10.00;1.00
11894;DHT22;6006;49.696;8.662;2023-02-17T04:29:45;10.00;99.90
11894;DHT22;6006;49.696;8.662;2023-02-17T04:32:12;10.00;99.90
11894;DHT22;6006;49.696;8.662;2023-02-17T04:34:39;10.00;1.00
11894;DHT22;6006;49.696;8.662;2023-02-17T04:37:06;10.00;1.00
11894;DHT22;6006;49.696;8.662;2023-02-17T04:39:33;10.10;1.00
11894;DHT22;6006;49.696;8.662;2023-02-17T04:42:00;10.10;10.80
11894;DHT22;6006;49.696;8.662;2023-02-17T04:44:28;10.00;99.90
11894;DHT22;6006;49.696;8.662;2023-02-17T04:46:55;10.10;1.00
11894;DHT22;6006;49.696;8.662;2023-02-17T04:49:22;10.10;99.90
11894;DHT22;6006;49.696;8.662;2023-02-17T04:51:49;10.10;1.00
11894;DHT22;6006;49.696;8.662;2023-02-17T04:54:15;10.10;1.00
11894;DHT22;6006;49.696;8.662;2023-02-17T04:56:42;10.10;1.00
11894;DHT22;6006;49.696;8.662;2023-02-17T04:59:09;10.10;99.90
11894;DHT22;6006;49.696;8.662;2023-02-17T05:01:37;10.00;1.00
11894;DHT22;6006;49.696;8.662;2023-02-17T05:04:04;10.00;1.00
11894;DHT22;6006;49.696;8.662;2023-02-17T05:06:31;10.00;1.00
11894;DHT22;6006;49.696;8.662;2023-02-17T05:08:58;10.00;1.00
11894;DHT22;6006;49.696;8.662;2023-02-17T05:11:25;10.00;21.40
11894;DHT22;6006;49.696;8.662;2023-02-17T05:13:52;10.00;99.90
11894;DHT22;6006;49.696;8.662;2023-02-17T05:16:19;10.00;99.90
11894;DHT22;6006;49.696;8.662;2023-02-17T05:18:47;10.00;99.90
11894;DHT22;6006;49.696;8.662;2023-02-17T05:21:14;10.00;99.90
11894;DHT22;6006;49.696;8.662;2023-02-17T05:23:41;10.00;99.90
11894;DHT22;6006;49.696;8.662;2023-02-17T05:26:08;10.00;99.90
11894;DHT22;6006;49.696;8.662;2023-02-17T05:28:35;10.00;99.90
11894;DHT22;6006;49.696;8.662;2023-02-17T05:31:03;9.90;99.90
11894;DHT22;6006;49.696;8.662;2023-02-17T05:33:31;9.90;1.00
11894;DHT22;6006;49.696;8.662;2023-02-17T05:36:02;10.00;1.00
11894;DHT22;6006;49.696;8.662;2023-02-17T05:38:29;9.90;1.00
11894;DHT22;6006;49.696;8.662;2023-02-17T05:40:56;9.90;1.00
11894;DHT22;6006;49.696;8.662;2023-02-17T05:43:23;9.90;1.00
11894;DHT22;6006;49.696;8.662;2023-02-17T05:45:50;9.90;1.00
11894;DHT22;6006;49.696;8.662;2023-02-17T05:48:17;9.90;1.00
11894;DHT22;6006;49.696;8.662;2023-02-17T05:50:44;9.90;1.00
11894;DHT22;6006;49.696;8.662;2023-02-17T05:53:12;9.90;1.00
11894;DHT22;6006;49.696;8.662;2023-02-17T05:55:39;9.90;1.00
11894;DHT22;6006;49.696;8.662;2023-02-17T05:58:06;9.80;1.00
11894;DHT22;6006;49.696;8.662;2023-02-17T06:00:33;9.90;1.00
11894;DHT22;6006;49.696;8.662;2023-02-17T06:03:00;9.90;1.00
11894;DHT22;6006;49.696;8.662;2023-02-17T06:05:27;9.80;1.00
11894;DHT22;6006;49.696;8.662;2023-02-17T06:07:54;9.80;1.00
11894;DHT22;6006;49.696;8.662;2023-02-17T06:10:22;9.80;1.00
11894;DHT22;6006;49.696;8.662;2023-02-17T06:12:49;9.80;1.00
11894;DHT22;6006;49.696;8.662;2023-02-17T06:15:16;9.90;1.00
11894;DHT22;6006;49.696;8.662;2023-02-17T06:17:43;9.80;1.00
11894;DHT22;6006;49.696;8.662;2023-02-17T06:20:10;9.80;1.00
11894;DHT22;6006;49.696;8.662;2023-02-17T06:22:37;9.80;1.00
11894;DHT22;6006;49.696;8.662;2023-02-17T06:25:05;9.80;1.00
11894;DHT22;6006;49.696;8.662;2023-02-17T06:27:33;9.80;1.00
11894;DHT22;6006;49.696;8.662;2023-02-17T06:30:00;9.80;1.00
11894;DHT22;6006;49.696;8.662;2023-02-17T06:32:27;9.80;1.00
11894;DHT22;6006;49.696;8.662;2023-02-17T06:34:54;9.80;1.00
11894;DHT22;6006;49.696;8.662;2023-02-17T06:37:21;9.80;1.00
11894;DHT22;6006;49.696;8.662;2023-02-17T06:39:48;9.80;1.00
11894;DHT22;6006;49.696;8.662;2023-02-17T06:42:14;9.80;1.00
11894;DHT22;6006;49.696;8.662;2023-02-17T06:44:43;9.80;1.00
11894;DHT22;6006;49.696;8.662;2023-02-17T06:47:10;9.70;1.00
11894;DHT22;6006;49.696;8.662;2023-02-17T06:49:36;9.80;1.00
11894;DHT22;6006;49.696;8.662;2023-02-17T06:52:03;9.80;1.00
11894;DHT22;6006;49.696;8.662;2023-02-17T06:54:30;9.80;1.00
11894;DHT22;6006;49.696;8.662;2023-02-17T06:56:57;9.80;1.00
11894;DHT22;6006;49.696;8.662;2023-02-17T06:59:24;9.80;1.00
11894;DHT22;6006;49.696;8.662;2023-02-17T07:01:52;9.80;1.00
11894;DHT22;6006;49.696;8.662;2023-02-17T07:04:19;9.80;1.00
11894;DHT22;6006;49.696;8.662;2023-02-17T07:06:46;9.80;1.00
11894;DHT22;6006;49.696;8.662;2023-02-17T07:09:13;9.80;1.00
11894;DHT22;6006;49.696;8.662;2023-02-17T07:11:40;9.80;76.70
11894;DHT22;6006;49.696;8.662;2023-02-17T07:14:10;9.80;95.20
11894;DHT22;6006;49.696;8.662;2023-02-17T07:16:37;9.80;91.30
11894;DHT22;6006;49.696;8.662;2023-02-17T07:19:05;9.90;17.20
11894;DHT22;6006;49.696;8.662;2023-02-17T07:21:32;9.90;41.70
11894;DHT22;6006;49.696;8.662;2023-02-17T07:23:59;10.00;72.20
11894;DHT22;6006;49.696;8.662;2023-02-17T07:26:26;9.90;1.00
11894;DHT22;6006;49.696;8.662;2023-02-17T07:28:53;9.80;90.20
11894;DHT22;6006;49.696;8.662;2023-02-17T07:31:20;9.80;99.90
11894;DHT22;6006;49.696;8.662;2023-02-17T07:33:47;9.70;99.90
11894;DHT22;6006;49.696;8.662;2023-02-17T07:36:16;9.80;99.90
11894;DHT22;6006;49.696;8.662;2023-02-17T07:38:44;9.70;99.90
11894;DHT22;6006;49.696;8.662;2023-02-17T07:41:12;9.70;99.90
11894;DHT22;6006;49.696;8.662;2023-02-17T07:43:39;9.70;99.90
11894;DHT22;6006;49.696;8.662;2023-02-17T07:46:07;9.70;99.90
11894;DHT22;6006;49.696;8.662;2023-02-17T07:48:35;9.70;99.90
11894;DHT22;6006;49.696;8.662;2023-02-17T07:51:05;9.70;99.90
11894;DHT22;6006;49.696;8.662;2023-02-17T07:53:35;9.70;99.90
11894;DHT22;6006;49.696;8.662;2023-02-17T07:56:02;9.70;99.90
11894;DHT22;6006;49.696;8.662;2023-02-17T07:58:30;9.70;99.90
11894;DHT22;6006;49.696;8.662;2023-02-17T08:00:57;9.70;99.90
11894;DHT22;6006;49.696;8.662;2023-02-17T08:03:24;9.70;99.90
11894;DHT22;6006;49.696;8.662;2023-02-17T08:05:51;9.70;99.90
11894;DHT22;6006;49.696;8.662;2023-02-17T08:08:18;9.70;99.90
11894;DHT22;6006;49.696;8.662;2023-02-17T08:11:04;9.80;99.90
11894;DHT22;6006;49.696;8.662;2023-02-17T08:13:48;9.80;99.90
11894;DHT22;6006;49.696;8.662;2023-02-17T08:16:15;9.80;99.90
11894;DHT22;6006;49.696;8.662;2023-02-17T08:18:42;9.80;99.90
11894;DHT22;6006;49.696;8.662;2023-02-17T08:21:09;9.80;99.90
11894;DHT22;6006;49.696;8.662;2023-02-17T08:23:35;9.90;99.90
11894;DHT22;6006;49.696;8.662;2023-02-17T08:26:04;9.90;99.90
11894;DHT22;6006;49.696;8.662;2023-02-17T08:28:31;9.90;99.90
11894;DHT22;6006;49.696;8.662;2023-02-17T08:30:58;9.80;99.90
11894;DHT22;6006;49.696;8.662;2023-02-17T08:33:25;9.90;99.90
11894;DHT22;6006;49.696;8.662;2023-02-17T08:35:52;9.90;99.90
11894;DHT22;6006;49.696;8.662;2023-02-17T08:38:18;9.90;99.90
11894;DHT22;6006;49.696;8.662;2023-02-17T08:40:45;9.90;99.90
11894;DHT22;6006;49.696;8.662;2023-02-17T08:43:14;9.90;99.90
11894;DHT22;6006;49.696;8.662;2023-02-17T08:45:40;9.90;99.90
11894;DHT22;6006;49.696;8.662;2023-02-17T08:48:07;9.90;99.90
11894;DHT22;6006;49.696;8.662;2023-02-17T08:50:34;10.00;99.90
11894;DHT22;6006;49.696;8.662;2023-02-17T08:53:01;10.00;99.90
11894;DHT22;6006;49.696;8.662;2023-02-17T08:55:28;10.00;99.90
11894;DHT22;6006;49.696;8.662;2023-02-17T08:57:55;10.10;99.90
11894;DHT22;6006;49.696;8.662;2023-02-17T09:00:23;10.10;99.90
11894;DHT22;6006;49.696;8.662;2023-02-17T09:02:50;10.10;99.90
11894;DHT22;6006;49.696;8.662;2023-02-17T09:05:17;10.10;99.90
11894;DHT22;6006;49.696;8.662;2023-02-17T09:07:44;10.10;99.90
11894;DHT22;6006;49.696;8.662;2023-02-17T09:10:12;10.10;99.90
11894;DHT22;6006;49.696;8.662;2023-02-17T09:12:39;10.10;99.90
11894;DHT22;6006;49.696;8.662;2023-02-17T09:15:07;10.10;99.90
11894;DHT22;6006;49.696;8.662;2023-02-17T09:17:39;10.10;99.90
11894;DHT22;6006;49.696;8.662;2023-02-17T09:20:06;10.10;99.90
11894;DHT22;6006;49.696;8.662;2023-02-17T09:22:34;10.10;99.90
11894;DHT22;6006;49.696;8.662;2023-02-17T09:25:01;10.00;99.90
11894;DHT22;6006;49.696;8.662;2023-02-17T09:27:28;10.00;99.90
11894;DHT22;6006;49.696;8.662;2023-02-17T09:29:55;10.00;99.90
11894;DHT22;6006;49.696;8.662;2023-02-17T09:32:22;9.90;99.90
11894;DHT22;6006;49.696;8.662;2023-02-17T09:34:50;10.00;99.90
11894;DHT22;6006;49.696;8.662;2023-02-17T09:37:18;9.90;99.90
11894;DHT22;6006;49.696;8.662;2023-02-17T09:39:46;9.90;99.90
11894;DHT22;6006;49.696;8.662;2023-02-17T09:42:17;9.80;99.90
11894;DHT22;6006;49.696;8.662;2023-02-17T09:44:48;9.80;99.90
11894;DHT22;6006;49.696;8.662;2023-02-17T09:47:19;9.90;99.90
11894;DHT22;6006;49.696;8.662;2023-02-17T09:49:48;9.80;99.90
11894;DHT22;6006;49.696;8.662;2023-02-17T09:52:23;9.80;99.90
11894;DHT22;6006;49.696;8.662;2023-02-17T09:54:58;9.80;99.90
11894;DHT22;6006;49.696;8.662;2023-02-17T09:57:32;9.80;99.90
11894;DHT22;6006;49.696;8.662;2023-02-17T10:00:03;9.80;99.90
11894;DHT22;6006;49.696;8.662;2023-02-17T10:02:37;9.90;99.90
11894;DHT22;6006;49.696;8.662;2023-02-17T10:05:07;9.80;99.90
11894;DHT22;6006;49.696;8.662;2023-02-17T10:07:40;9.80;99.90
11894;DHT22;6006;49.696;8.662;2023-02-17T10:10:13;9.80;99.90
11894;DHT22;6006;49.696;8.662;2023-02-17T10:12:43;9.80;99.90
11894;DHT22;6006;49.696;8.662;2023-02-17T10:15:14;9.80;99.90
11894;DHT22;6006;49.696;8.662;2023-02-17T10:17:47;9.90;99.90
11894;DHT22;6006;49.696;8.662;2023-02-17T10:20:19;9.80;99.90
11894;DHT22;6006;49.696;8.662;2023-02-17T10:22:53;9.90;99.90
11894;DHT22;6006;49.696;8.662;2023-02-17T10:25:48;9.90;99.90
11894;DHT22;6006;49.696;8.662;2023-02-17T10:28:21;9.90;99.90
11894;DHT22;6006;49.696;8.662;2023-02-17T10:30:58;9.90;99.90
11894;DHT22;6006;49.696;8.662;2023-02-17T10:33:30;10.00;99.90
11894;DHT22;6006;49.696;8.662;2023-02-17T10:36:09;10.00;99.90
11894;DHT22;6006;49.696;8.662;2023-02-17T10:38:46;10.00;99.90
11894;DHT22;6006;49.696;8.662;2023-02-17T10:41:16;10.00;99.90
11894;DHT22;6006;49.696;8.662;2023-02-17T10:43:45;10.00;99.90
11894;DHT22;6006;49.696;8.662;2023-02-17T10:46:15;10.00;99.90
11894;DHT22;6006;49.696;8.662;2023-02-17T10:48:46;10.00;99.90
11894;DHT22;6006;49.696;8.662;2023-02-17T10:51:15;10.00;99.90
11894;DHT22;6006;49.696;8.662;2023-02-17T10:53:47;10.10;99.90
11894;DHT22;6006;49.696;8.662;2023-02-17T10:56:17;10.10;99.90
11894;DHT22;6006;49.696;8.662;2023-02-17T10:58:51;10.20;99.90
11894;DHT22;6006;49.696;8.662;2023-02-17T11:01:19;10.20;99.90
11894;DHT22;6006;49.696;8.662;2023-02-17T11:03:58;10.20;99.90
11894;DHT22;6006;49.696;8.662;2023-02-17T11:06:25;10.20;99.90
11894;DHT22;6006;49.696;8.662;2023-02-17T11:08:57;10.20;99.90
11894;DHT22;6006;49.696;8.662;2023-02-17T11:11:27;10.20;99.90
11894;DHT22;6006;49.696;8.662;2023-02-17T11:14:08;10.30;99.90
11894;DHT22;6006;49.696;8.662;2023-02-17T11:16:38;10.30;99.90
11894;DHT22;6006;49.696;8.662;2023-02-17T11:19:07;10.30;99.90
11894;DHT22;6006;49.696;8.662;2023-02-17T11:21:46;10.30;99.90
11894;DHT22;6006;49.696;8.662;2023-02-17T11:24:14;10.30;99.90
11894;DHT22;6006;49.696;8.662;2023-02-17T11:26:41;10.40;99.90
11894;DHT22;6006;49.696;8.662;2023-02-17T11:29:09;10.40;99.90
11894;DHT22;6006;49.696;8.662;2023-02-17T11:31:36;10.40;99.90
11894;DHT22;6006;49.696;8.662;2023-02-17T11:34:11;10.40;99.90
11894;DHT22;6006;49.696;8.662;2023-02-17T11:36:38;10.40;99.90
11894;DHT22;6006;49.696;8.662;2023-02-17T11:39:16;10.40;99.90
11894;DHT22;6006;49.696;8.662;2023-02-17T11:41:43;10.50;99.90
11894;DHT22;6006;49.696;8.662;2023-02-17T11:44:10;10.50;99.90
11894;DHT22;6006;49.696;8.662;2023-02-17T11:46:42;10.60;99.90
11894;DHT22;6006;49.696;8.662;2023-02-17T11:49:32;10.60;99.90
11894;DHT22;6006;49.696;8.662;2023-02-17T11:52:18;10.60;99.90
11894;DHT22;6006;49.696;8.662;2023-02-17T11:55:01;10.60;99.90
11894;DHT22;6006;49.696;8.662;2023-02-17T11:57:36;10.70;99.90
11894;DHT22;6006;49.696;8.662;2023-02-17T12:00:15;10.70;99.90
11894;DHT22;6006;49.696;8.662;2023-02-17T12:05:55;10.70;99.90
11894;DHT22;6006;49.696;8.662;2023-02-17T12:08:37;10.80;99.90
11894;DHT22;6006;49.696;8.662;2023-02-17T12:11:18;10.80;99.90
11894;DHT22;6006;49.696;8.662;2023-02-17T12:13:55;10.90;99.90
11894;DHT22;6006;49.696;8.662;2023-02-17T12:16:39;11.00;99.90
11894;DHT22;6006;49.696;8.662;2023-02-17T12:19:30;11.00;99.90
11894;DHT22;6006;49.696;8.662;2023-02-17T12:22:12;11.00;99.90
11894;DHT22;6006;49.696;8.662;2023-02-17T12:24:57;11.10;99.90
11894;DHT22;6006;49.696;8.662;2023-02-17T12:27:42;11.10;99.90
11894;DHT22;6006;49.696;8.662;2023-02-17T12:30:25;11.20;99.90
11894;DHT22;6006;49.696;8.662;2023-02-17T12:33:06;11.20;99.90
11894;DHT22;6006;49.696;8.662;2023-02-17T12:35:44;11.20;99.90
11894;DHT22;6006;49.696;8.662;2023-02-17T12:38:16;11.20;99.90
11894;DHT22;6006;49.696;8.662;2023-02-17T12:40:49;11.30;99.90
11894;DHT22;6006;49.696;8.662;2023-02-17T12:43:23;11.30;99.90
11894;DHT22;6006;49.696;8.662;2023-02-17T12:45:52;11.40;99.90
11894;DHT22;6006;49.696;8.662;2023-02-17T12:48:24;11.50;99.90
11894;DHT22;6006;49.696;8.662;2023-02-17T12:50:57;11.50;99.90
11894;DHT22;6006;49.696;8.662;2023-02-17T12:53:35;11.50;99.90
11894;DHT22;6006;49.696;8.662;2023-02-17T12:59:10;11.60;99.90
11894;DHT22;6006;49.696;8.662;2023-02-17T13:01:46;11.70;99.90
11894;DHT22;6006;49.696;8.662;2023-02-17T13:04:17;11.70;99.90
11894;DHT22;6006;49.696;8.662;2023-02-17T13:06:49;11.90;99.90
11894;DHT22;6006;49.696;8.662;2023-02-17T13:09:24;12.00;99.90
11894;DHT22;6006;49.696;8.662;2023-02-17T13:11:52;12.20;99.90
11894;DHT22;6006;49.696;8.662;2023-02-17T13:14:27;12.30;99.90
11894;DHT22;6006;49.696;8.662;2023-02-17T13:16:54;12.40;99.90
11894;DHT22;6006;49.696;8.662;2023-02-17T13:19:28;12.40;99.90
11894;DHT22;6006;49.696;8.662;2023-02-17T13:21:57;12.40;99.90
11894;DHT22;6006;49.696;8.662;2023-02-17T13:24:32;12.40;99.90
11894;DHT22;6006;49.696;8.662;2023-02-17T13:27:09;12.40;99.90
11894;DHT22;6006;49.696;8.662;2023-02-17T13:29:37;12.30;99.90
11894;DHT22;6006;49.696;8.662;2023-02-17T13:32:06;12.30;99.90
11894;DHT22;6006;49.696;8.662;2023-02-17T13:34:36;12.30;99.90
11894;DHT22;6006;49.696;8.662;2023-02-17T13:37:16;12.30;99.90
11894;DHT22;6006;49.696;8.662;2023-02-17T13:39:44;12.30;99.90
11894;DHT22;6006;49.696;8.662;2023-02-17T13:42:35;12.30;99.90
11894;DHT22;6006;49.696;8.662;2023-02-17T13:45:13;12.30;99.90
11894;DHT22;6006;49.696;8.662;2023-02-17T13:47:42;12.30;99.90
11894;DHT22;6006;49.696;8.662;2023-02-17T13:50:26;12.30;99.90
11894;DHT22;6006;49.696;8.662;2023-02-17T13:52:54;12.30;99.90
11894;DHT22;6006;49.696;8.662;2023-02-17T13:55:22;12.30;99.90
11894;DHT22;6006;49.696;8.662;2023-02-17T13:57:52;12.20;99.90
11894;DHT22;6006;49.696;8.662;2023-02-17T14:00:22;12.20;99.90
11894;DHT22;6006;49.696;8.662;2023-02-17T14:02:51;12.20;99.90
11894;DHT22;6006;49.696;8.662;2023-02-17T14:05:20;12.20;99.90
11894;DHT22;6006;49.696;8.662;2023-02-17T14:07:49;12.20;99.90
11894;DHT22;6006;49.696;8.662;2023-02-17T14:10:22;12.10;99.90
11894;DHT22;6006;49.696;8.662;2023-02-17T14:12:49;12.10;99.90
11894;DHT22;6006;49.696;8.662;2023-02-17T14:15:18;12.10;99.90
11894;DHT22;6006;49.696;8.662;2023-02-17T14:17:47;12.10;99.90
11894;DHT22;6006;49.696;8.662;2023-02-17T14:20:29;12.20;99.90
11894;DHT22;6006;49.696;8.662;2023-02-17T14:23:01;12.20;99.90
11894;DHT22;6006;49.696;8.662;2023-02-17T14:25:31;12.20;99.90
11894;DHT22;6006;49.696;8.662;2023-02-17T14:27:58;12.20;99.90
11894;DHT22;6006;49.696;8.662;2023-02-17T14:30:30;12.20;99.90
11894;DHT22;6006;49.696;8.662;2023-02-17T14:33:04;12.20;99.90
11894;DHT22;6006;49.696;8.662;2023-02-17T14:35:32;12.10;99.90
11894;DHT22;6006;49.696;8.662;2023-02-17T14:38:07;12.10;99.90
11894;DHT22;6006;49.696;8.662;2023-02-17T14:40:34;12.10;99.90
11894;DHT22;6006;49.696;8.662;2023-02-17T14:43:01;12.10;99.90
11894;DHT22;6006;49.696;8.662;2023-02-17T14:45:28;12.10;99.90
11894;DHT22;6006;49.696;8.662;2023-02-17T14:47:55;12.10;99.90
11894;DHT22;6006;49.696;8.662;2023-02-17T14:50:23;12.00;99.90
11894;DHT22;6006;49.696;8.662;2023-02-17T14:52:51;12.00;99.90
11894;DHT22;6006;49.696;8.662;2023-02-17T14:55:26;12.00;99.90
11894;DHT22;6006;49.696;8.662;2023-02-17T14:57:55;12.00;99.90
11894;DHT22;6006;49.696;8.662;2023-02-17T15:00:22;11.90;99.90
11894;DHT22;6006;49.696;8.662;2023-02-17T15:02:49;11.90;99.90
11894;DHT22;6006;49.696;8.662;2023-02-17T15:05:17;11.90;99.90
11894;DHT22;6006;49.696;8.662;2023-02-17T15:07:45;12.00;99.90
11894;DHT22;6006;49.696;8.662;2023-02-17T15:10:17;11.90;99.90
11894;DHT22;6006;49.696;8.662;2023-02-17T15:12:45;12.00;99.90
11894;DHT22;6006;49.696;8.662;2023-02-17T15:15:17;11.90;99.90
11894;DHT22;6006;49.696;8.662;2023-02-17T15:17:44;11.90;99.90
11894;DHT22;6006;49.696;8.662;2023-02-17T15:20:12;11.90;99.90
11894;DHT22;6006;49.696;8.662;2023-02-17T15:22:39;11.90;99.90
11894;DHT22;6006;49.696;8.662;2023-02-17T15:25:16;11.90;99.90
11894;DHT22;6006;49.696;8.662;2023-02-17T15:27:44;11.80;99.90
11894;DHT22;6006;49.696;8.662;2023-02-17T15:30:13;11.80;99.90
11894;DHT22;6006;49.696;8.662;2023-02-17T15:32:41;11.80;99.90
11894;DHT22;6006;49.696;8.662;2023-02-17T15:35:15;11.70;99.90
11894;DHT22;6006;49.696;8.662;2023-02-17T15:37:43;11.80;99.90
11894;DHT22;6006;49.696;8.662;2023-02-17T15:40:15;11.80;99.90
11894;DHT22;6006;49.696;8.662;2023-02-17T15:42:43;11.80;99.90
11894;DHT22;6006;49.696;8.662;2023-02-17T15:45:12;11.90;99.90
11894;DHT22;6006;49.696;8.662;2023-02-17T15:47:39;11.80;99.90
11894;DHT22;6006;49.696;8.662;2023-02-17T15:50:12;11.80;99.90
11894;DHT22;6006;49.696;8.662;2023-02-17T15:52:43;11.90;99.90
11894;DHT22;6006;49.696;8.662;2023-02-17T15:55:10;11.90;99.90
11894;DHT22;6006;49.696;8.662;2023-02-17T15:57:42;11.80;99.90
11894;DHT22;6006;49.696;8.662;2023-02-17T16:00:16;11.90;99.90
11894;DHT22;6006;49.696;8.662;2023-02-17T16:02:44;11.90;99.90
11894;DHT22;6006;49.696;8.662;2023-02-17T16:05:13;11.90;99.90
11894;DHT22;6006;49.696;8.662;2023-02-17T16:07:40;11.90;99.90
11894;DHT22;6006;49.696;8.662;2023-02-17T16:10:08;11.90;99.90
11894;DHT22;6006;49.696;8.662;2023-02-17T16:12:35;11.90;99.90
11894;DHT22;6006;49.696;8.662;2023-02-17T16:15:04;11.90;99.90
11894;DHT22;6006;49.696;8.662;2023-02-17T16:17:32;11.90;99.90
11894;DHT22;6006;49.696;8.662;2023-02-17T16:19:58;11.90;99.90
11894;DHT22;6006;49.696;8.662;2023-02-17T16:22:25;11.80;99.90
11894;DHT22;6006;49.696;8.662;2023-02-17T16:24:54;11.80;99.90
11894;DHT22;6006;49.696;8.662;2023-02-17T16:27:21;11.80;99.90
11894;DHT22;6006;49.696;8.662;2023-02-17T16:29:49;11.80;99.90